sensor_id;sensor_type;location;lat;lon;timestamp;P1;durP1;ratioP1;P2;durP2;ratioP2
8632;SDS011;4354;49.832;10.746;2022-07-18T00:00:29;1.13;;;0.90;;
8632;SDS011;4354;49.832;10.746;2022-07-18T00:02:56;3.97;;;1.10;;
8632;SDS011;4354;49.832;10.746;2022-07-18T00:05:24;3.10;;;1.23;;
8632;SDS011;4354;49.832;10.746;2022-07-18T00:07:51;2.20;;;1.07;;
8632;SDS011;4354;49.832;10.746;2022-07-18T00:10:18;3.40;;;1.23;;
8632;SDS011;4354;49.832;10.746;2022-07-18T00:12:44;2.93;;;1.17;;
8632;SDS011;4354;49.832;10.746;2022-07-18T00:15:11;3.70;;;1.10;;
8632;SDS011;4354;49.832;10.746;2022-07-18T00:17:38;1.87;;;1.10;;
8632;SDS011;4354;49.832;10.746;2022-07-18T00:20:07;2.47;;;1.27;;
8632;SDS011;4354;49.832;10.746;2022-07-18T00:22:35;3.83;;;1.23;;
8632;SDS011;4354;49.832;10.746;2022-07-18T00:25:02;3.20;;;1.20;;
8632;SDS011;4354;49.832;10.746;2022-07-18T00:27:29;1.53;;;1.10;;
8632;SDS011;4354;49.832;10.746;2022-07-18T00:29:56;1.67;;;1.07;;
8632;SDS011;4354;49.832;10.746;2022-07-18T00:32:23;2.20;;;1.20;;
8632;SDS011;4354;49.832;10.746;2022-07-18T00:34:50;3.00;;;1.20;;
8632;SDS011;4354;49.832;10.746;2022-07-18T00:37:17;2.50;;;1.10;;
8632;SDS011;4354;49.832;10.746;2022-07-18T00:39:44;1.17;;;0.90;;
8632;SDS011;4354;49.832;10.746;2022-07-18T00:42:10;2.10;;;1.10;;
8632;SDS011;4354;49.832;10.746;2022-07-18T00:44:37;3.07;;;1.20;;
8632;SDS011;4354;49.832;10.746;2022-07-18T00:47:04;2.40;;;1.00;;
8632;SDS011;4354;49.832;10.746;2022-07-18T00:49:31;1.77;;;1.00;;
8632;SDS011;4354;49.832;10.746;2022-07-18T00:51:58;3.23;;;1.13;;
8632;SDS011;4354;49.832;10.746;2022-07-18T00:54:28;2.03;;;1.10;;
8632;SDS011;4354;49.832;10.746;2022-07-18T00:56:57;3.17;;;1.10;;
8632;SDS011;4354;49.832;10.746;2022-07-18T00:59:25;1.67;;;1.20;;
8632;SDS011;4354;49.832;10.746;2022-07-18T01:02:12;1.47;;;1.00;;
8632;SDS011;4354;49.832;10.746;2022-07-18T01:04:39;2.43;;;1.30;;
8632;SDS011;4354;49.832;10.746;2022-07-18T01:07:07;1.53;;;1.03;;
8632;SDS011;4354;49.832;10.746;2022-07-18T01:09:34;3.43;;;1.37;;
8632;SDS011;4354;49.832;10.746;2022-07-18T01:12:00;2.27;;;1.43;;
8632;SDS011;4354;49.832;10.746;2022-07-18T01:14:28;2.20;;;1.30;;
8632;SDS011;4354;49.832;10.746;2022-07-18T01:16:56;1.47;;;1.00;;
8632;SDS011;4354;49.832;10.746;2022-07-18T01:19:23;3.10;;;1.27;;
8632;SDS011;4354;49.832;10.746;2022-07-18T01:21:50;2.10;;;1.37;;
8632;SDS011;4354;49.832;10.746;2022-07-18T01:24:16;1.10;;;1.00;;
8632;SDS011;4354;49.832;10.746;2022-07-18T01:26:43;2.93;;;1.40;;
8632;SDS011;4354;49.832;10.746;2022-07-18T01:29:10;2.83;;;1.10;;
8632;SDS011;4354;49.832;10.746;2022-07-18T01:31:37;2.70;;;1.20;;
8632;SDS011;4354;49.832;10.746;2022-07-18T01:34:04;2.70;;;1.30;;
8632;SDS011;4354;49.832;10.746;2022-07-18T01:36:31;1.60;;;1.03;;
8632;SDS011;4354;49.832;10.746;2022-07-18T01:38:58;4.67;;;1.40;;
8632;SDS011;4354;49.832;10.746;2022-07-18T01:41:25;2.03;;;1.30;;
8632;SDS011;4354;49.832;10.746;2022-07-18T01:43:52;2.87;;;1.40;;
8632;SDS011;4354;49.832;10.746;2022-07-18T01:46:19;1.20;;;1.03;;
8632;SDS011;4354;49.832;10.746;2022-07-18T01:48:46;1.83;;;1.17;;
8632;SDS011;4354;49.832;10.746;2022-07-18T01:51:13;2.80;;;1.20;;
8632;SDS011;4354;49.832;10.746;2022-07-18T01:53:40;3.17;;;1.20;;
8632;SDS011;4354;49.832;10.746;2022-07-18T01:56:08;1.20;;;1.03;;
8632;SDS011;4354;49.832;10.746;2022-07-18T01:58:38;3.70;;;1.20;;
8632;SDS011;4354;49.832;10.746;2022-07-18T02:01:05;3.27;;;1.40;;
8632;SDS011;4354;49.832;10.746;2022-07-18T02:03:32;2.00;;;1.30;;
8632;SDS011;4354;49.832;10.746;2022-07-18T02:05:59;1.90;;;1.23;;
8632;SDS011;4354;49.832;10.746;2022-07-18T02:08:25;2.07;;;1.20;;
8632;SDS011;4354;49.832;10.746;2022-07-18T02:10:52;1.87;;;1.17;;
8632;SDS011;4354;49.832;10.746;2022-07-18T02:13:19;3.73;;;1.30;;
8632;SDS011;4354;49.832;10.746;2022-07-18T02:15:47;2.10;;;1.20;;
8632;SDS011;4354;49.832;10.746;2022-07-18T02:18:14;3.57;;;1.37;;
8632;SDS011;4354;49.832;10.746;2022-07-18T02:20:41;1.97;;;1.23;;
8632;SDS011;4354;49.832;10.746;2022-07-18T02:23:08;2.63;;;1.20;;
8632;SDS011;4354;49.832;10.746;2022-07-18T02:25:36;1.30;;;1.20;;
8632;SDS011;4354;49.832;10.746;2022-07-18T02:28:03;4.13;;;1.17;;
8632;SDS011;4354;49.832;10.746;2022-07-18T02:30:30;2.20;;;1.20;;
8632;SDS011;4354;49.832;10.746;2022-07-18T02:32:58;4.13;;;1.37;;
8632;SDS011;4354;49.832;10.746;2022-07-18T02:35:25;1.90;;;1.10;;
8632;SDS011;4354;49.832;10.746;2022-07-18T02:37:52;1.40;;;1.30;;
8632;SDS011;4354;49.832;10.746;2022-07-18T02:40:19;3.03;;;1.10;;
8632;SDS011;4354;49.832;10.746;2022-07-18T02:42:46;4.80;;;1.47;;
8632;SDS011;4354;49.832;10.746;2022-07-18T02:45:13;1.67;;;1.40;;
8632;SDS011;4354;49.832;10.746;2022-07-18T02:47:40;1.77;;;1.40;;
8632;SDS011;4354;49.832;10.746;2022-07-18T02:50:07;3.93;;;1.20;;
8632;SDS011;4354;49.832;10.746;2022-07-18T02:52:35;2.13;;;1.63;;
8632;SDS011;4354;49.832;10.746;2022-07-18T02:55:03;2.80;;;1.30;;
8632;SDS011;4354;49.832;10.746;2022-07-18T02:57:30;2.67;;;1.33;;
8632;SDS011;4354;49.832;10.746;2022-07-18T02:59:57;2.83;;;1.40;;
8632;SDS011;4354;49.832;10.746;2022-07-18T03:02:24;1.87;;;1.50;;
8632;SDS011;4354;49.832;10.746;2022-07-18T03:04:53;2.17;;;1.10;;
8632;SDS011;4354;49.832;10.746;2022-07-18T03:07:19;3.50;;;1.63;;
8632;SDS011;4354;49.832;10.746;2022-07-18T03:09:46;1.77;;;1.40;;
8632;SDS011;4354;49.832;10.746;2022-07-18T03:12:13;2.97;;;1.40;;
8632;SDS011;4354;49.832;10.746;2022-07-18T03:14:40;2.30;;;1.30;;
8632;SDS011;4354;49.832;10.746;2022-07-18T03:17:07;3.27;;;1.30;;
8632;SDS011;4354;49.832;10.746;2022-07-18T03:19:34;2.73;;;1.47;;
8632;SDS011;4354;49.832;10.746;2022-07-18T03:22:02;3.33;;;1.53;;
8632;SDS011;4354;49.832;10.746;2022-07-18T03:24:29;1.67;;;1.30;;
8632;SDS011;4354;49.832;10.746;2022-07-18T03:26:56;2.83;;;1.67;;
8632;SDS011;4354;49.832;10.746;2022-07-18T03:29:23;2.77;;;1.33;;
8632;SDS011;4354;49.832;10.746;2022-07-18T03:31:50;3.20;;;1.37;;
8632;SDS011;4354;49.832;10.746;2022-07-18T03:34:17;4.37;;;1.53;;
8632;SDS011;4354;49.832;10.746;2022-07-18T03:36:45;3.23;;;1.50;;
8632;SDS011;4354;49.832;10.746;2022-07-18T03:39:12;5.10;;;1.43;;
8632;SDS011;4354;49.832;10.746;2022-07-18T03:41:39;1.80;;;1.50;;
8632;SDS011;4354;49.832;10.746;2022-07-18T03:44:06;1.90;;;1.17;;
8632;SDS011;4354;49.832;10.746;2022-07-18T03:46:33;3.00;;;1.53;;
8632;SDS011;4354;49.832;10.746;2022-07-18T03:49:01;3.40;;;1.53;;
8632;SDS011;4354;49.832;10.746;2022-07-18T03:51:28;2.13;;;1.40;;
8632;SDS011;4354;49.832;10.746;2022-07-18T03:53:55;3.00;;;1.70;;
8632;SDS011;4354;49.832;10.746;2022-07-18T03:56:21;3.67;;;1.70;;
8632;SDS011;4354;49.832;10.746;2022-07-18T03:58:48;8.50;;;1.50;;
8632;SDS011;4354;49.832;10.746;2022-07-18T04:01:15;1.70;;;1.40;;
8632;SDS011;4354;49.832;10.746;2022-07-18T04:03:42;3.23;;;1.50;;
8632;SDS011;4354;49.832;10.746;2022-07-18T04:06:10;3.70;;;1.80;;
8632;SDS011;4354;49.832;10.746;2022-07-18T04:08:36;2.60;;;1.50;;
8632;SDS011;4354;49.832;10.746;2022-07-18T04:11:03;1.83;;;1.40;;
8632;SDS011;4354;49.832;10.746;2022-07-18T04:13:30;2.43;;;1.60;;
8632;SDS011;4354;49.832;10.746;2022-07-18T04:15:57;5.20;;;1.50;;
8632;SDS011;4354;49.832;10.746;2022-07-18T04:18:24;5.40;;;1.50;;
8632;SDS011;4354;49.832;10.746;2022-07-18T04:20:51;2.37;;;1.60;;
8632;SDS011;4354;49.832;10.746;2022-07-18T04:23:18;2.30;;;1.60;;
8632;SDS011;4354;49.832;10.746;2022-07-18T04:25:45;2.57;;;1.40;;
8632;SDS011;4354;49.832;10.746;2022-07-18T04:28:12;3.33;;;1.50;;
8632;SDS011;4354;49.832;10.746;2022-07-18T04:30:40;4.87;;;1.83;;
8632;SDS011;4354;49.832;10.746;2022-07-18T04:33:09;3.07;;;1.80;;
8632;SDS011;4354;49.832;10.746;2022-07-18T04:35:37;2.43;;;1.67;;
8632;SDS011;4354;49.832;10.746;2022-07-18T04:38:06;4.70;;;1.90;;
8632;SDS011;4354;49.832;10.746;2022-07-18T04:40:34;3.27;;;1.53;;
8632;SDS011;4354;49.832;10.746;2022-07-18T04:43:01;3.23;;;1.60;;
8632;SDS011;4354;49.832;10.746;2022-07-18T04:45:29;2.57;;;1.70;;
8632;SDS011;4354;49.832;10.746;2022-07-18T04:47:56;2.73;;;1.30;;
8632;SDS011;4354;49.832;10.746;2022-07-18T04:50:23;3.77;;;1.90;;
8632;SDS011;4354;49.832;10.746;2022-07-18T04:52:50;4.93;;;2.07;;
8632;SDS011;4354;49.832;10.746;2022-07-18T04:55:19;2.63;;;1.50;;
8632;SDS011;4354;49.832;10.746;2022-07-18T04:57:48;3.37;;;1.60;;
8632;SDS011;4354;49.832;10.746;2022-07-18T05:00:17;2.40;;;1.50;;
8632;SDS011;4354;49.832;10.746;2022-07-18T05:02:50;3.30;;;1.70;;
8632;SDS011;4354;49.832;10.746;2022-07-18T05:05:19;3.90;;;1.40;;
8632;SDS011;4354;49.832;10.746;2022-07-18T05:07:46;4.93;;;1.57;;
8632;SDS011;4354;49.832;10.746;2022-07-18T05:10:15;5.20;;;1.30;;
8632;SDS011;4354;49.832;10.746;2022-07-18T05:12:44;6.50;;;1.70;;
8632;SDS011;4354;49.832;10.746;2022-07-18T05:15:13;2.70;;;1.30;;
8632;SDS011;4354;49.832;10.746;2022-07-18T05:17:41;3.30;;;1.50;;
8632;SDS011;4354;49.832;10.746;2022-07-18T05:20:10;1.70;;;1.20;;
8632;SDS011;4354;49.832;10.746;2022-07-18T05:22:41;2.23;;;1.30;;
8632;SDS011;4354;49.832;10.746;2022-07-18T05:25:09;3.90;;;1.70;;
8632;SDS011;4354;49.832;10.746;2022-07-18T05:27:37;3.67;;;1.50;;
8632;SDS011;4354;49.832;10.746;2022-07-18T05:30:05;2.00;;;1.10;;
8632;SDS011;4354;49.832;10.746;2022-07-18T05:32:33;1.77;;;1.43;;
8632;SDS011;4354;49.832;10.746;2022-07-18T05:35:00;1.60;;;1.13;;
8632;SDS011;4354;49.832;10.746;2022-07-18T05:37:27;5.83;;;1.77;;
8632;SDS011;4354;49.832;10.746;2022-07-18T05:39:55;5.43;;;1.30;;
8632;SDS011;4354;49.832;10.746;2022-07-18T05:42:21;1.97;;;1.40;;
8632;SDS011;4354;49.832;10.746;2022-07-18T05:45:08;1.57;;;1.30;;
8632;SDS011;4354;49.832;10.746;2022-07-18T05:47:36;2.23;;;1.30;;
8632;SDS011;4354;49.832;10.746;2022-07-18T05:50:05;3.17;;;1.10;;
8632;SDS011;4354;49.832;10.746;2022-07-18T05:52:32;2.80;;;1.30;;
8632;SDS011;4354;49.832;10.746;2022-07-18T05:54:59;3.03;;;1.30;;
8632;SDS011;4354;49.832;10.746;2022-07-18T05:57:27;2.73;;;1.50;;
8632;SDS011;4354;49.832;10.746;2022-07-18T05:59:53;2.87;;;1.37;;
8632;SDS011;4354;49.832;10.746;2022-07-18T06:02:20;1.60;;;0.97;;
8632;SDS011;4354;49.832;10.746;2022-07-18T06:04:47;2.77;;;1.30;;
8632;SDS011;4354;49.832;10.746;2022-07-18T06:07:34;2.50;;;1.40;;
8632;SDS011;4354;49.832;10.746;2022-07-18T06:10:02;5.87;;;1.27;;
8632;SDS011;4354;49.832;10.746;2022-07-18T06:12:29;2.83;;;1.20;;
8632;SDS011;4354;49.832;10.746;2022-07-18T06:14:57;2.43;;;1.40;;
8632;SDS011;4354;49.832;10.746;2022-07-18T06:17:25;4.00;;;1.80;;
8632;SDS011;4354;49.832;10.746;2022-07-18T06:19:53;3.80;;;1.30;;
8632;SDS011;4354;49.832;10.746;2022-07-18T06:22:22;3.97;;;1.60;;
8632;SDS011;4354;49.832;10.746;2022-07-18T06:24:49;4.60;;;1.47;;
8632;SDS011;4354;49.832;10.746;2022-07-18T06:27:17;2.13;;;1.37;;
8632;SDS011;4354;49.832;10.746;2022-07-18T06:29:44;2.47;;;1.33;;
8632;SDS011;4354;49.832;10.746;2022-07-18T06:32:10;3.63;;;1.40;;
8632;SDS011;4354;49.832;10.746;2022-07-18T06:34:37;3.90;;;1.93;;
8632;SDS011;4354;49.832;10.746;2022-07-18T06:37:04;4.63;;;1.60;;
8632;SDS011;4354;49.832;10.746;2022-07-18T06:39:31;6.03;;;2.47;;
8632;SDS011;4354;49.832;10.746;2022-07-18T06:41:57;6.03;;;2.90;;
8632;SDS011;4354;49.832;10.746;2022-07-18T06:44:24;6.20;;;3.10;;
8632;SDS011;4354;49.832;10.746;2022-07-18T06:46:51;5.97;;;2.95;;
8632;SDS011;4354;49.832;10.746;2022-07-18T06:49:18;3.90;;;2.13;;
8632;SDS011;4354;49.832;10.746;2022-07-18T06:51:46;6.70;;;2.30;;
8632;SDS011;4354;49.832;10.746;2022-07-18T06:54:12;6.32;;;2.25;;
8632;SDS011;4354;49.832;10.746;2022-07-18T06:56:39;5.72;;;2.13;;
8632;SDS011;4354;49.832;10.746;2022-07-18T06:59:06;4.40;;;2.10;;
8632;SDS011;4354;49.832;10.746;2022-07-18T07:01:33;3.05;;;1.58;;
8632;SDS011;4354;49.832;10.746;2022-07-18T07:04:01;2.38;;;1.63;;
8632;SDS011;4354;49.832;10.746;2022-07-18T07:06:28;3.20;;;1.50;;
8632;SDS011;4354;49.832;10.746;2022-07-18T07:08:56;1.52;;;1.20;;
8632;SDS011;4354;49.832;10.746;2022-07-18T07:11:22;6.22;;;1.60;;
8632;SDS011;4354;49.832;10.746;2022-07-18T07:13:49;2.63;;;1.58;;
8632;SDS011;4354;49.832;10.746;2022-07-18T07:16:16;2.83;;;1.63;;
8632;SDS011;4354;49.832;10.746;2022-07-18T07:18:43;2.92;;;1.40;;
8632;SDS011;4354;49.832;10.746;2022-07-18T07:21:10;5.18;;;1.38;;
8632;SDS011;4354;49.832;10.746;2022-07-18T07:23:43;4.10;;;1.30;;
8632;SDS011;4354;49.832;10.746;2022-07-18T07:26:10;2.95;;;1.70;;
8632;SDS011;4354;49.832;10.746;2022-07-18T07:28:36;2.95;;;1.23;;
8632;SDS011;4354;49.832;10.746;2022-07-18T07:31:03;5.53;;;1.40;;
8632;SDS011;4354;49.832;10.746;2022-07-18T07:33:31;3.85;;;1.50;;
8632;SDS011;4354;49.832;10.746;2022-07-18T07:35:59;3.20;;;1.42;;
8632;SDS011;4354;49.832;10.746;2022-07-18T07:38:26;2.95;;;1.38;;
8632;SDS011;4354;49.832;10.746;2022-07-18T07:40:55;4.32;;;1.30;;
8632;SDS011;4354;49.832;10.746;2022-07-18T07:43:22;4.70;;;1.60;;
8632;SDS011;4354;49.832;10.746;2022-07-18T07:45:50;4.13;;;1.50;;
8632;SDS011;4354;49.832;10.746;2022-07-18T07:48:19;4.72;;;1.40;;
8632;SDS011;4354;49.832;10.746;2022-07-18T07:50:46;1.67;;;1.23;;
8632;SDS011;4354;49.832;10.746;2022-07-18T07:53:13;2.47;;;1.52;;
8632;SDS011;4354;49.832;10.746;2022-07-18T07:55:39;3.20;;;1.20;;
8632;SDS011;4354;49.832;10.746;2022-07-18T07:58:07;2.33;;;1.73;;
8632;SDS011;4354;49.832;10.746;2022-07-18T08:00:35;5.43;;;1.58;;
8632;SDS011;4354;49.832;10.746;2022-07-18T08:03:04;1.80;;;1.33;;
8632;SDS011;4354;49.832;10.746;2022-07-18T08:05:33;3.80;;;1.65;;
8632;SDS011;4354;49.832;10.746;2022-07-18T08:08:01;6.65;;;1.50;;
8632;SDS011;4354;49.832;10.746;2022-07-18T08:10:28;3.75;;;1.40;;
8632;SDS011;4354;49.832;10.746;2022-07-18T08:12:56;4.22;;;1.52;;
8632;SDS011;4354;49.832;10.746;2022-07-18T08:15:24;4.72;;;1.33;;
8632;SDS011;4354;49.832;10.746;2022-07-18T08:17:51;4.22;;;1.40;;
8632;SDS011;4354;49.832;10.746;2022-07-18T08:20:19;2.90;;;1.30;;
8632;SDS011;4354;49.832;10.746;2022-07-18T08:25:20;2.28;;;1.30;;
8632;SDS011;4354;49.832;10.746;2022-07-18T08:27:47;2.92;;;1.52;;
8632;SDS011;4354;49.832;10.746;2022-07-18T08:30:15;3.42;;;1.38;;
8632;SDS011;4354;49.832;10.746;2022-07-18T08:32:42;4.50;;;1.40;;
8632;SDS011;4354;49.832;10.746;2022-07-18T08:35:09;2.40;;;1.20;;
8632;SDS011;4354;49.832;10.746;2022-07-18T08:37:36;2.83;;;1.50;;
8632;SDS011;4354;49.832;10.746;2022-07-18T08:40:03;2.92;;;1.75;;
8632;SDS011;4354;49.832;10.746;2022-07-18T08:42:32;6.07;;;1.17;;
8632;SDS011;4354;49.832;10.746;2022-07-18T08:45:00;5.10;;;1.30;;
8632;SDS011;4354;49.832;10.746;2022-07-18T08:47:28;5.57;;;1.65;;
8632;SDS011;4354;49.832;10.746;2022-07-18T08:49:56;4.70;;;1.70;;
8632;SDS011;4354;49.832;10.746;2022-07-18T08:52:24;4.45;;;1.52;;
8632;SDS011;4354;49.832;10.746;2022-07-18T08:55:11;3.80;;;1.48;;
8632;SDS011;4354;49.832;10.746;2022-07-18T08:57:50;4.70;;;1.50;;
8632;SDS011;4354;49.832;10.746;2022-07-18T09:00:19;2.95;;;1.30;;
8632;SDS011;4354;49.832;10.746;2022-07-18T09:02:57;3.20;;;1.40;;
8632;SDS011;4354;49.832;10.746;2022-07-18T09:05:29;3.08;;;1.60;;
8632;SDS011;4354;49.832;10.746;2022-07-18T09:08:13;3.20;;;1.50;;
8632;SDS011;4354;49.832;10.746;2022-07-18T09:10:50;3.47;;;1.40;;
8632;SDS011;4354;49.832;10.746;2022-07-18T09:13:30;2.97;;;1.38;;
8632;SDS011;4354;49.832;10.746;2022-07-18T09:16:06;3.83;;;1.40;;
8632;SDS011;4354;49.832;10.746;2022-07-18T09:18:37;3.03;;;1.30;;
8632;SDS011;4354;49.832;10.746;2022-07-18T09:21:07;3.42;;;1.40;;
8632;SDS011;4354;49.832;10.746;2022-07-18T09:23:40;2.17;;;1.40;;
8632;SDS011;4354;49.832;10.746;2022-07-18T09:26:11;2.05;;;1.35;;
8632;SDS011;4354;49.832;10.746;2022-07-18T09:28:48;1.75;;;1.40;;
8632;SDS011;4354;49.832;10.746;2022-07-18T09:31:35;2.80;;;1.30;;
8632;SDS011;4354;49.832;10.746;2022-07-18T09:34:03;1.92;;;1.38;;
8632;SDS011;4354;49.832;10.746;2022-07-18T09:36:30;3.00;;;1.30;;
8632;SDS011;4354;49.832;10.746;2022-07-18T09:39:00;3.08;;;1.40;;
8632;SDS011;4354;49.832;10.746;2022-07-18T09:41:28;2.75;;;1.40;;
8632;SDS011;4354;49.832;10.746;2022-07-18T09:44:00;2.25;;;1.30;;
8632;SDS011;4354;49.832;10.746;2022-07-18T09:49:33;1.58;;;1.20;;
8632;SDS011;4354;49.832;10.746;2022-07-18T09:52:08;2.97;;;1.45;;
8632;SDS011;4354;49.832;10.746;2022-07-18T09:54:37;2.65;;;1.10;;
8632;SDS011;4354;49.832;10.746;2022-07-18T09:57:05;4.22;;;1.27;;
8632;SDS011;4354;49.832;10.746;2022-07-18T09:59:32;5.10;;;1.60;;
8632;SDS011;4354;49.832;10.746;2022-07-18T10:02:00;4.00;;;1.50;;
8632;SDS011;4354;49.832;10.746;2022-07-18T10:04:28;2.30;;;1.15;;
8632;SDS011;4354;49.832;10.746;2022-07-18T10:06:55;1.95;;;1.50;;
8632;SDS011;4354;49.832;10.746;2022-07-18T10:09:22;2.08;;;1.23;;
8632;SDS011;4354;49.832;10.746;2022-07-18T10:11:49;2.30;;;1.20;;
8632;SDS011;4354;49.832;10.746;2022-07-18T10:14:20;1.67;;;1.27;;
8632;SDS011;4354;49.832;10.746;2022-07-18T10:16:48;2.75;;;1.35;;
8632;SDS011;4354;49.832;10.746;2022-07-18T10:19:15;1.75;;;1.05;;
8632;SDS011;4354;49.832;10.746;2022-07-18T10:21:44;1.70;;;1.15;;
8632;SDS011;4354;49.832;10.746;2022-07-18T10:24:16;1.00;;;0.90;;
8632;SDS011;4354;49.832;10.746;2022-07-18T10:26:44;1.55;;;0.95;;
8632;SDS011;4354;49.832;10.746;2022-07-18T10:29:31;1.70;;;1.05;;
8632;SDS011;4354;49.832;10.746;2022-07-18T10:32:02;1.58;;;0.77;;
8632;SDS011;4354;49.832;10.746;2022-07-18T10:34:35;1.02;;;0.75;;
8632;SDS011;4354;49.832;10.746;2022-07-18T10:39:34;1.05;;;0.80;;
8632;SDS011;4354;49.832;10.746;2022-07-18T11:00:18;2.72;;;0.88;;
8632;SDS011;4354;49.832;10.746;2022-07-18T11:15:55;1.80;;;0.90;;
8632;SDS011;4354;49.832;10.746;2022-07-18T11:18:31;1.33;;;0.82;;
8632;SDS011;4354;49.832;10.746;2022-07-18T11:20:59;1.17;;;0.90;;
8632;SDS011;4354;49.832;10.746;2022-07-18T11:23:27;2.63;;;1.10;;
8632;SDS011;4354;49.832;10.746;2022-07-18T11:26:02;3.60;;;1.08;;
8632;SDS011;4354;49.832;10.746;2022-07-18T11:28:29;1.30;;;1.00;;
8632;SDS011;4354;49.832;10.746;2022-07-18T11:31:03;1.92;;;1.08;;
8632;SDS011;4354;49.832;10.746;2022-07-18T11:33:39;1.98;;;1.05;;
8632;SDS011;4354;49.832;10.746;2022-07-18T11:36:14;2.47;;;1.38;;
8632;SDS011;4354;49.832;10.746;2022-07-18T11:38:47;2.35;;;1.08;;
8632;SDS011;4354;49.832;10.746;2022-07-18T11:41:16;1.40;;;1.00;;
8632;SDS011;4354;49.832;10.746;2022-07-18T11:43:49;17.40;;;1.63;;
8632;SDS011;4354;49.832;10.746;2022-07-18T11:46:18;8.90;;;1.90;;
8632;SDS011;4354;49.832;10.746;2022-07-18T11:49:04;1.45;;;1.10;;
8632;SDS011;4354;49.832;10.746;2022-07-18T11:51:50;4.10;;;1.00;;
8632;SDS011;4354;49.832;10.746;2022-07-18T11:54:21;1.58;;;0.95;;
8632;SDS011;4354;49.832;10.746;2022-07-18T11:56:51;1.98;;;1.00;;
8632;SDS011;4354;49.832;10.746;2022-07-18T11:59:20;2.38;;;1.10;;
8632;SDS011;4354;49.832;10.746;2022-07-18T12:01:47;1.95;;;1.05;;
8632;SDS011;4354;49.832;10.746;2022-07-18T12:04:19;1.25;;;1.00;;
8632;SDS011;4354;49.832;10.746;2022-07-18T12:09:45;1.20;;;0.90;;
8632;SDS011;4354;49.832;10.746;2022-07-18T12:12:17;1.10;;;0.95;;
8632;SDS011;4354;49.832;10.746;2022-07-18T12:14:54;2.58;;;1.13;;
8632;SDS011;4354;49.832;10.746;2022-07-18T12:17:26;1.75;;;1.15;;
8632;SDS011;4354;49.832;10.746;2022-07-18T12:20:11;1.33;;;0.95;;
8632;SDS011;4354;49.832;10.746;2022-07-18T12:28:24;1.40;;;1.00;;
8632;SDS011;4354;49.832;10.746;2022-07-18T12:30:52;4.82;;;1.20;;
8632;SDS011;4354;49.832;10.746;2022-07-18T12:33:26;1.48;;;0.93;;
8632;SDS011;4354;49.832;10.746;2022-07-18T12:35:57;2.17;;;0.90;;
8632;SDS011;4354;49.832;10.746;2022-07-18T12:38:25;1.48;;;0.90;;
8632;SDS011;4354;49.832;10.746;2022-07-18T12:45:57;1.25;;;1.02;;
8632;SDS011;4354;49.832;10.746;2022-07-18T12:48:29;2.65;;;1.15;;
8632;SDS011;4354;49.832;10.746;2022-07-18T12:53:27;1.42;;;0.90;;
8632;SDS011;4354;49.832;10.746;2022-07-18T12:55:55;2.08;;;0.93;;
8632;SDS011;4354;49.832;10.746;2022-07-18T12:58:22;2.90;;;1.00;;
8632;SDS011;4354;49.832;10.746;2022-07-18T13:00:49;1.25;;;1.08;;
8632;SDS011;4354;49.832;10.746;2022-07-18T13:03:17;3.95;;;1.10;;
8632;SDS011;4354;49.832;10.746;2022-07-18T13:05:44;3.40;;;0.98;;
8632;SDS011;4354;49.832;10.746;2022-07-18T13:08:10;1.80;;;0.98;;
8632;SDS011;4354;49.832;10.746;2022-07-18T13:10:38;2.33;;;0.90;;
8632;SDS011;4354;49.832;10.746;2022-07-18T13:13:06;2.05;;;0.93;;
8632;SDS011;4354;49.832;10.746;2022-07-18T13:15:35;2.58;;;1.13;;
8632;SDS011;4354;49.832;10.746;2022-07-18T13:18:03;1.02;;;0.85;;
8632;SDS011;4354;49.832;10.746;2022-07-18T13:20:30;1.15;;;0.88;;
8632;SDS011;4354;49.832;10.746;2022-07-18T13:22:58;4.07;;;1.00;;
8632;SDS011;4354;49.832;10.746;2022-07-18T13:25:30;1.23;;;0.90;;
8632;SDS011;4354;49.832;10.746;2022-07-18T13:27:59;2.28;;;1.20;;
8632;SDS011;4354;49.832;10.746;2022-07-18T13:30:26;1.35;;;1.02;;
8632;SDS011;4354;49.832;10.746;2022-07-18T13:32:53;3.47;;;1.00;;
8632;SDS011;4354;49.832;10.746;2022-07-18T13:35:21;1.40;;;1.00;;
8632;SDS011;4354;49.832;10.746;2022-07-18T13:37:48;2.35;;;0.93;;
8632;SDS011;4354;49.832;10.746;2022-07-18T13:40:15;1.70;;;0.88;;
8632;SDS011;4354;49.832;10.746;2022-07-18T13:42:42;1.02;;;0.80;;
8632;SDS011;4354;49.832;10.746;2022-07-18T13:45:09;1.42;;;0.93;;
8632;SDS011;4354;49.832;10.746;2022-07-18T13:47:36;2.33;;;0.90;;
8632;SDS011;4354;49.832;10.746;2022-07-18T13:50:04;2.08;;;1.00;;
8632;SDS011;4354;49.832;10.746;2022-07-18T13:52:32;1.23;;;1.00;;
8632;SDS011;4354;49.832;10.746;2022-07-18T13:54:59;2.67;;;1.00;;
8632;SDS011;4354;49.832;10.746;2022-07-18T13:57:26;1.52;;;0.90;;
8632;SDS011;4354;49.832;10.746;2022-07-18T13:59:54;2.20;;;0.80;;
8632;SDS011;4354;49.832;10.746;2022-07-18T14:02:21;1.23;;;0.90;;
8632;SDS011;4354;49.832;10.746;2022-07-18T14:04:48;5.47;;;1.17;;
8632;SDS011;4354;49.832;10.746;2022-07-18T14:07:35;2.97;;;1.10;;
8632;SDS011;4354;49.832;10.746;2022-07-18T14:10:02;1.17;;;1.08;;
8632;SDS011;4354;49.832;10.746;2022-07-18T14:12:29;1.13;;;1.02;;
8632;SDS011;4354;49.832;10.746;2022-07-18T14:14:56;1.50;;;1.00;;
8632;SDS011;4354;49.832;10.746;2022-07-18T14:17:23;1.42;;;0.90;;
8632;SDS011;4354;49.832;10.746;2022-07-18T14:19:50;1.48;;;1.00;;
8632;SDS011;4354;49.832;10.746;2022-07-18T14:22:16;1.65;;;1.00;;
8632;SDS011;4354;49.832;10.746;2022-07-18T14:24:43;1.15;;;0.85;;
8632;SDS011;4354;49.832;10.746;2022-07-18T14:27:11;1.65;;;1.08;;
8632;SDS011;4354;49.832;10.746;2022-07-18T14:29:37;2.28;;;1.10;;
8632;SDS011;4354;49.832;10.746;2022-07-18T14:32:05;6.00;;;1.20;;
8632;SDS011;4354;49.832;10.746;2022-07-18T14:34:33;1.38;;;1.10;;
8632;SDS011;4354;49.832;10.746;2022-07-18T14:37:00;3.03;;;1.08;;
8632;SDS011;4354;49.832;10.746;2022-07-18T14:39:27;1.23;;;1.05;;
8632;SDS011;4354;49.832;10.746;2022-07-18T14:41:54;1.15;;;0.93;;
8632;SDS011;4354;49.832;10.746;2022-07-18T14:44:21;2.40;;;1.20;;
8632;SDS011;4354;49.832;10.746;2022-07-18T14:46:48;1.83;;;1.20;;
8632;SDS011;4354;49.832;10.746;2022-07-18T14:49:15;2.10;;;1.10;;
8632;SDS011;4354;49.832;10.746;2022-07-18T14:51:42;2.10;;;1.10;;
8632;SDS011;4354;49.832;10.746;2022-07-18T14:54:09;3.60;;;1.20;;
8632;SDS011;4354;49.832;10.746;2022-07-18T14:56:38;2.83;;;1.02;;
8632;SDS011;4354;49.832;10.746;2022-07-18T14:59:04;2.05;;;1.00;;
8632;SDS011;4354;49.832;10.746;2022-07-18T15:01:31;1.27;;;1.10;;
8632;SDS011;4354;49.832;10.746;2022-07-18T15:03:59;3.80;;;1.20;;
8632;SDS011;4354;49.832;10.746;2022-07-18T15:06:32;2.17;;;1.00;;
8632;SDS011;4354;49.832;10.746;2022-07-18T15:08:59;3.83;;;1.17;;
8632;SDS011;4354;49.832;10.746;2022-07-18T15:11:26;2.28;;;1.05;;
8632;SDS011;4354;49.832;10.746;2022-07-18T15:13:53;1.70;;;0.95;;
8632;SDS011;4354;49.832;10.746;2022-07-18T15:16:22;3.72;;;1.08;;
8632;SDS011;4354;49.832;10.746;2022-07-18T15:18:49;1.83;;;1.10;;
8632;SDS011;4354;49.832;10.746;2022-07-18T15:21:16;2.70;;;1.15;;
8632;SDS011;4354;49.832;10.746;2022-07-18T15:23:43;3.03;;;0.98;;
8632;SDS011;4354;49.832;10.746;2022-07-18T15:26:10;1.20;;;1.02;;
8632;SDS011;4354;49.832;10.746;2022-07-18T15:28:40;2.17;;;1.10;;
8632;SDS011;4354;49.832;10.746;2022-07-18T15:31:07;1.20;;;1.10;;
8632;SDS011;4354;49.832;10.746;2022-07-18T15:33:34;3.92;;;1.00;;
8632;SDS011;4354;49.832;10.746;2022-07-18T15:36:01;2.83;;;1.00;;
8632;SDS011;4354;49.832;10.746;2022-07-18T15:38:27;1.65;;;1.13;;
8632;SDS011;4354;49.832;10.746;2022-07-18T15:40:55;2.40;;;1.23;;
8632;SDS011;4354;49.832;10.746;2022-07-18T15:43:22;1.98;;;0.90;;
8632;SDS011;4354;49.832;10.746;2022-07-18T15:45:48;1.92;;;1.20;;
8632;SDS011;4354;49.832;10.746;2022-07-18T15:48:15;1.98;;;1.33;;
8632;SDS011;4354;49.832;10.746;2022-07-18T15:50:42;3.70;;;1.13;;
8632;SDS011;4354;49.832;10.746;2022-07-18T15:53:09;4.63;;;1.20;;
8632;SDS011;4354;49.832;10.746;2022-07-18T15:55:36;2.28;;;1.10;;
8632;SDS011;4354;49.832;10.746;2022-07-18T15:58:03;1.63;;;1.13;;
8632;SDS011;4354;49.832;10.746;2022-07-18T16:00:30;3.15;;;1.10;;
8632;SDS011;4354;49.832;10.746;2022-07-18T16:02:58;1.95;;;1.10;;